Gambler — LELC — position and weather

sailwx.info

Track history (hours):
 
Tides and Currents Weather Stations Pressure Air Temp Water Temp Dewpoint Dewpoint Depression Visibility Wind Speed Wind Dir Waves Ship Positions

Gambler

Last reported at 2015-Apr-10 08:09 UTC. Time now 2015-Apr-19 04:32 UTC.
Position N 59°19' W 003°25'.
Warning: this ship's position is 8 days out of date.

Length 70 m; draft 6 m.

Type: Fishing. MMSI: 258412000.

Date/timePositionNaut miles runAvg speedWind from/ knotsBaromVisibWave heightAir tempDewpointWater temp
2015-Apr-10 08:09N 59°19' W 003°25'610.1
2015-Apr-10 07:33N 59°16' W 003°36'1010.1
2015-Apr-10 06:33N 59°12' W 003°54'10 9.7
2015-Apr-10 05:33N 59°07' W 004°11'10 9.5
2015-Apr-10 04:33N 59°03' W 004°28'5010.0
2015-Apr-09 23:33N 58°40' W 005°53'2110.6
2015-Apr-09 21:32N 58°31' W 006°30'14 0.3
2015-Apr-08 01:33N 58°39' W 006°07'1311.3
2015-Apr-08 00:25N 58°44' W 005°45'4010.3
2015-Apr-07 20:31N 58°59' W 004°33'1010.3
2015-Apr-07 19:31N 59°03' W 004°15'1110.9
2015-Apr-07 18:33N 59°09' W 003°58'1111.1
2015-Apr-07 17:32N 59°15' W 003°39'  
Track history (hours):
 
Tides and Currents Weather Stations Pressure Air Temp Water Temp Dewpoint Dewpoint Depression Visibility Wind Speed Wind Dir Waves Ship Positions

Gambler

Last reported at 2015-Apr-10 08:09 UTC. Time now 2015-Apr-19 04:32 UTC.
Position N 59°19' W 003°25'.
Warning: this ship's position is 8 days out of date.

Length 70 m; draft 6 m.

Type: Fishing. MMSI: 258412000.

Date/timePositionNaut miles runAvg speedWind from/ knotsBaromVisibWave heightAir tempDewpointWater temp
2015-Apr-10 08:09N 59°19' W 003°25'610.1
2015-Apr-10 07:33N 59°16' W 003°36'1010.1
2015-Apr-10 06:33N 59°12' W 003°54'10 9.7
2015-Apr-10 05:33N 59°07' W 004°11'10 9.5
2015-Apr-10 04:33N 59°03' W 004°28'5010.0
2015-Apr-09 23:33N 58°40' W 005°53'2110.6
2015-Apr-09 21:32N 58°31' W 006°30'14 0.3
2015-Apr-08 01:33N 58°39' W 006°07'1311.3
2015-Apr-08 00:25N 58°44' W 005°45'4010.3
2015-Apr-07 20:31N 58°59' W 004°33'1010.3
2015-Apr-07 19:31N 59°03' W 004°15'1110.9
2015-Apr-07 18:33N 59°09' W 003°58'1111.1
2015-Apr-07 17:32N 59°15' W 003°39'  

Dump ship's entire track history